Time;durP1;ratioP1;P1;durP2;ratioP2;P2;SDS_P1;SDS_P2;PMS_P1;PMS_P2;Temp;Humidity;BMP_temperature;BMP_pressure;BME280_temperature;BME280_humidity;BME280_pressure;Samples;Min_cycle;Max_cycle;Signal;HPM_P1;HPM_P2
2023/12/10 00:01:15;;;;;;;13.87;3.17;;;;;;;;;;5027963;28;20202;-65
2023/12/10 00:03:40;;;;;;;14.97;4.43;;;;;;;;;;5031110;28;20556;-66
2023/12/10 00:06:06;;;;;;;17.70;3.13;;;;;;;;;;5029366;28;20232;-65
2023/12/10 00:08:31;;;;;;;15.13;3.77;;;;;;;;;;5030210;28;20564;-66
2023/12/10 00:10:57;;;;;;;18.37;3.27;;;;;;;;;;5026062;28;20301;-64
2023/12/10 00:13:22;;;;;;;15.13;2.97;;;;;;;;;;5025235;28;20222;-66
2023/12/10 00:15:47;;;;;;;20.53;4.87;;;;;;;;;;5030609;28;20178;-66
2023/12/10 00:18:13;;;;;;;19.13;5.13;;;;;;;;;;5032241;28;20166;-66
2023/12/10 00:20:38;;;;;;;21.17;5.87;;;;;;;;;;5029712;28;20205;-65
2023/12/10 00:23:03;;;;;;;21.17;5.17;;;;;;;;;;5025841;28;20200;-64
2023/12/10 00:25:31;;;;;;;22.27;5.17;;;;;;;;;;5027429;28;20186;-64
2023/12/10 00:27:57;;;;;;;15.47;3.63;;;;;;;;;;5029701;28;20220;-65
2023/12/10 00:30:22;;;;;;;18.43;3.90;;;;;;;;;;5027572;28;20189;-65
2023/12/10 00:32:47;;;;;;;14.40;3.60;;;;;;;;;;5027249;28;20178;-65
2023/12/10 00:35:12;;;;;;;26.20;3.63;;;;;;;;;;5028370;28;20202;-64
2023/12/10 00:37:38;;;;;;;28.80;5.10;;;;;;;;;;5027323;28;20182;-65
2023/12/10 00:40:06;;;;;;;15.60;3.00;;;;;;;;;;5029707;28;20224;-64
2023/12/10 00:42:31;;;;;;;20.70;3.83;;;;;;;;;;5032709;28;20556;-65
2023/12/10 00:44:56;;;;;;;24.37;4.30;;;;;;;;;;5031412;28;20182;-65
2023/12/10 00:47:22;;;;;;;14.30;3.83;;;;;;;;;;5029474;28;20665;-65
2023/12/10 00:49:47;;;;;;;19.27;4.27;;;;;;;;;;5029654;28;20178;-66
2023/12/10 00:52:12;;;;;;;26.97;4.50;;;;;;;;;;5026946;28;20189;-65
2023/12/10 00:54:37;;;;;;;13.80;3.87;;;;;;;;;;5031339;28;20197;-64
2023/12/10 00:57:03;;;;;;;24.57;4.63;;;;;;;;;;5028850;28;20178;-66
2023/12/10 00:59:28;;;;;;;22.43;3.90;;;;;;;;;;5031002;28;20180;-66
2023/12/10 01:01:53;;;;;;;17.87;3.53;;;;;;;;;;5026174;28;20268;-65
2023/12/10 01:04:18;;;;;;;20.53;4.43;;;;;;;;;;5029290;28;20232;-65
2023/12/10 01:06:44;;;;;;;17.17;3.87;;;;;;;;;;5025928;28;20186;-66
2023/12/10 01:09:09;;;;;;;21.43;4.57;;;;;;;;;;5028292;28;20183;-66
2023/12/10 01:11:35;;;;;;;20.90;3.93;;;;;;;;;;5025711;28;20642;-64
2023/12/10 01:14:02;;;;;;;23.40;3.43;;;;;;;;;;5041995;28;20198;-66
2023/12/10 01:16:28;;;;;;;19.63;3.30;;;;;;;;;;5025033;28;20202;-66
2023/12/10 01:18:53;;;;;;;18.07;3.70;;;;;;;;;;5020564;28;20209;-65
2023/12/10 01:21:19;;;;;;;17.40;3.07;;;;;;;;;;5019067;28;20206;-64
2023/12/10 01:23:44;;;;;;;14.80;3.23;;;;;;;;;;5016210;28;20236;-65
2023/12/10 01:26:12;;;;;;;18.93;3.40;;;;;;;;;;5024183;28;20232;-65
2023/12/10 01:28:38;;;;;;;15.63;3.50;;;;;;;;;;5030136;28;20548;-65
2023/12/10 01:31:03;;;;;;;21.93;3.70;;;;;;;;;;5030548;28;20201;-64
2023/12/10 01:33:28;;;;;;;23.07;3.80;;;;;;;;;;5031336;28;20799;-65
2023/12/10 01:35:54;;;;;;;22.63;4.47;;;;;;;;;;5029725;28;20170;-66
2023/12/10 01:38:19;;;;;;;14.33;3.60;;;;;;;;;;5030629;28;20190;-65
2023/12/10 01:40:44;;;;;;;21.07;3.97;;;;;;;;;;5028348;28;20201;-66
2023/12/10 01:43:11;;;;;;;21.30;5.33;;;;;;;;;;5026942;28;20203;-66
2023/12/10 01:45:36;;;;;;;13.93;3.10;;;;;;;;;;5030241;28;20543;-66
2023/12/10 01:48:04;;;;;;;16.00;3.37;;;;;;;;;;5024401;28;20195;-66
2023/12/10 01:50:30;;;;;;;11.30;3.63;;;;;;;;;;5033153;28;20689;-65
2023/12/10 01:52:58;;;;;;;17.60;3.13;;;;;;;;;;5035611;28;20237;-65
2023/12/10 01:55:23;;;;;;;20.77;4.07;;;;;;;;;;5019453;28;20206;-65
2023/12/10 01:57:48;;;;;;;19.40;3.37;;;;;;;;;;5032193;28;20530;-66
2023/12/10 02:00:14;;;;;;;19.10;3.60;;;;;;;;;;5033826;28;20695;-65
2023/12/10 02:02:39;;;;;;;23.70;3.60;;;;;;;;;;5033881;28;20177;-65
2023/12/10 02:05:09;;;;;;;12.07;3.67;;;;;;;;;;5027607;28;20209;-64
2023/12/10 02:07:34;;;;;;;21.70;4.07;;;;;;;;;;5022571;28;20193;-66
2023/12/10 02:12:40;;;;;;;21.13;4.17;;;;;;;;;;5046317;23;20322;-84
2023/12/10 02:15:15;;;;;;;23.03;5.27;;;;;;;;;;5008272;28;20218;-83
2023/12/10 02:17:44;;;;;;;21.90;3.53;;;;;;;;;;5001584;28;20211;-82
2023/12/10 02:20:25;;;;;;;26.13;5.00;;;;;;;;;;4999788;28;20203;-83
2023/12/10 02:23:22;;;;;;;;;;;;;;;;;;;;;
2023/12/10 02:26:09;;;;;;;;;;;;;;;;;;;;;
2023/12/10 02:28:46;;;;;;;22.80;4.33;;;;;;;;;;4998039;28;20231;-83
2023/12/10 02:31:31;;;;;;;14.57;3.17;;;;;;;;;;4991531;28;20188;-84
2023/12/10 02:34:04;;;;;;;13.70;3.00;;;;;;;;;;5017219;28;20563;-85
2023/12/10 02:36:30;;;;;;;22.73;4.70;;;;;;;;;;5007145;22;20235;-84
2023/12/10 02:39:20;;;;;;;16.60;3.73;;;;;;;;;;4994872;28;20183;-85
2023/12/10 02:42:14;;;;;;;19.47;5.20;;;;;;;;;;5012083;28;20180;-83
2023/12/10 02:47:58;;;;;;;20.43;4.97;;;;;;;;;;4993587;28;20195;-85
2023/12/10 02:50:34;;;;;;;25.13;3.60;;;;;;;;;;4991781;28;20184;-85
2023/12/10 02:53:23;;;;;;;26.93;4.70;;;;;;;;;;5000547;28;20194;-85
2023/12/10 02:56:01;;;;;;;19.37;4.83;;;;;;;;;;5007381;28;20231;-85
2023/12/10 03:05:03;;;;;;;16.47;3.43;;;;;;;;;;4993997;28;20176;-83
2023/12/10 03:10:56;;;;;;;15.50;4.00;;;;;;;;;;4893947;29;20187;-84
2023/12/10 03:13:48;;;;;;;26.43;4.70;;;;;;;;;;4980380;28;20195;-84
2023/12/10 03:16:49;;;;;;;17.10;3.80;;;;;;;;;;5011072;28;20291;-85
2023/12/10 03:19:21;;;;;;;9.43;2.63;;;;;;;;;;5000304;28;20689;-84
2023/12/10 03:22:09;;;;;;;13.50;4.47;;;;;;;;;;5014761;28;20210;-83
2023/12/10 03:25:02;;;;;;;21.97;5.33;;;;;;;;;;4990374;28;20195;-83
2023/12/10 03:31:00;;;;;;;17.90;4.10;;;;;;;;;;4987252;28;20202;-84
2023/12/10 03:33:35;;;;;;;23.23;4.33;;;;;;;;;;4996585;28;20191;-84
2023/12/10 03:36:33;;;;;;;;;;;;;;;;;;;;;
2023/12/10 03:39:12;;;;;;;19.93;3.53;;;;;;;;;;4992868;28;20194;-84
2023/12/10 03:42:09;;;;;;;15.77;4.13;;;;;;;;;;5006021;28;20640;-84
2023/12/10 03:47:46;;;;;;;16.13;4.23;;;;;;;;;;4988833;28;20192;-84
2023/12/10 03:50:47;;;;;;;;;;;;;;;;;;;;;
2023/12/10 03:53:28;;;;;;;;;;;;;;;;;;;;;
2023/12/10 03:56:28;;;;;;;25.63;4.57;;;;;;;;;;4995184;28;20294;-84
2023/12/10 03:59:15;;;;;;;19.97;3.87;;;;;;;;;;5005971;28;20186;-84
2023/12/10 04:04:40;;;;;;;23.43;3.87;;;;;;;;;;4989665;28;20203;-84
2023/12/10 04:07:08;;;;;;;20.23;5.03;;;;;;;;;;5011629;28;20703;-85
2023/12/10 04:09:45;;;;;;;21.63;3.47;;;;;;;;;;5008248;28;20187;-84
2023/12/10 04:12:26;;;;;;;20.10;3.87;;;;;;;;;;5012009;28;20199;-84
2023/12/10 04:15:29;;;;;;;19.03;3.83;;;;;;;;;;4990498;28;20249;-84
2023/12/10 04:18:36;;;;;;;23.43;4.03;;;;;;;;;;4995575;28;20317;-84
2023/12/10 04:21:03;;;;;;;12.43;2.97;;;;;;;;;;4987214;28;20250;-82
2023/12/10 04:23:48;;;;;;;15.37;3.90;;;;;;;;;;5008635;28;20195;-83
2023/12/10 04:26:23;;;;;;;17.03;3.80;;;;;;;;;;5004506;28;20306;-84
2023/12/10 04:28:52;;;;;;;16.20;3.37;;;;;;;;;;4991068;28;20281;-84
2023/12/10 04:31:31;;;;;;;17.70;3.57;;;;;;;;;;4994374;28;20176;-83
2023/12/10 04:34:16;;;;;;;14.67;4.00;;;;;;;;;;4996002;28;20323;-83
2023/12/10 04:36:41;;;;;;;9.57;3.13;;;;;;;;;;5001438;28;20226;-83
2023/12/10 04:39:27;;;;;;;15.53;3.00;;;;;;;;;;5044265;28;20230;-84
2023/12/10 04:44:57;;;;;;;28.33;3.73;;;;;;;;;;5005596;28;20582;-84
2023/12/10 04:51:28;;;;;;;21.97;3.87;;;;;;;;;;4964140;28;20672;-83
2023/12/10 04:54:05;;;;;;;12.73;2.43;;;;;;;;;;4951866;28;20211;-83
2023/12/10 04:56:48;;;;;;;;;;;;;;;;;;;;;
2023/12/10 05:08:45;;;;;;;;;;;;;;;;;;;;;
2023/12/10 05:11:50;;;;;;;;;;;;;;;;;;;;;
2023/12/10 05:14:50;;;;;;;20.90;3.37;;;;;;;;;;4975935;28;20772;-82
2023/12/10 05:20:43;;;;;;;8.27;2.67;;;;;;;;;;5021321;28;20170;-85
2023/12/10 05:23:28;;;;;;;21.37;3.40;;;;;;;;;;5013636;28;20171;-86
2023/12/10 05:26:08;;;;;;;15.07;3.67;;;;;;;;;;5050205;28;20229;-85
2023/12/10 05:28:45;;;;;;;12.70;3.90;;;;;;;;;;5025642;28;20214;-83
2023/12/10 05:31:32;;;;;;;10.73;3.20;;;;;;;;;;4996433;28;20191;-82
2023/12/10 05:34:01;;;;;;;16.70;2.77;;;;;;;;;;4992511;28;20536;-82
2023/12/10 05:36:59;;;;;;;;;;;;;;;;;;;;;
2023/12/10 05:39:29;;;;;;;14.10;3.50;;;;;;;;;;4992892;28;20184;-83
2023/12/10 05:42:30;;;;;;;18.57;3.53;;;;;;;;;;5045831;28;20216;-82
2023/12/10 05:45:10;;;;;;;15.20;3.17;;;;;;;;;;4936307;29;20219;-83
2023/12/10 05:48:07;;;;;;;14.57;3.00;;;;;;;;;;4956418;28;20708;-83
2023/12/10 05:50:56;;;;;;;18.27;4.10;;;;;;;;;;4992292;28;20191;-83
2023/12/10 05:53:31;;;;;;;18.10;3.27;;;;;;;;;;5048151;28;20198;-82
2023/12/10 05:56:38;;;;;;;24.73;4.07;;;;;;;;;;5051000;28;20277;-82
2023/12/10 05:59:21;;;;;;;;;;;;;;;;;;;;;
2023/12/10 06:08:14;;;;;;;13.83;3.23;;;;;;;;;;4862212;29;20210;-82
2023/12/10 06:10:44;;;;;;;17.20;3.60;;;;;;;;;;4872812;29;20191;-82
2023/12/10 06:13:58;;;;;;;;;;;;;;;;;;;;;
2023/12/10 06:17:09;;;;;;;;;;;;;;;;;;;;;
2023/12/10 06:20:04;;;;;;;16.40;2.83;;;;;;;;;;4992066;28;20188;-82
2023/12/10 06:22:47;;;;;;;19.23;4.90;;;;;;;;;;4995263;28;20679;-83
2023/12/10 06:27:40;;;;;;;14.50;2.77;;;;;;;;;;5010116;28;20300;-69
2023/12/10 06:30:08;;;;;;;16.10;3.53;;;;;;;;;;5027144;28;20634;-68
2023/12/10 06:32:33;;;;;;;18.13;3.53;;;;;;;;;;5027294;28;20248;-66
2023/12/10 06:34:59;;;;;;;15.27;3.40;;;;;;;;;;5013269;28;20195;-67
2023/12/10 06:37:24;;;;;;;20.97;3.80;;;;;;;;;;5009350;28;20619;-67
2023/12/10 06:39:49;;;;;;;16.50;3.87;;;;;;;;;;5010130;28;20619;-68
2023/12/10 06:42:14;;;;;;;16.13;4.17;;;;;;;;;;5010142;28;20203;-69
2023/12/10 06:44:41;;;;;;;15.63;2.77;;;;;;;;;;5011164;28;20237;-67
2023/12/10 06:47:06;;;;;;;10.57;2.20;;;;;;;;;;5011332;28;20274;-68
2023/12/10 06:49:31;;;;;;;15.77;3.27;;;;;;;;;;5001378;28;20266;-68
2023/12/10 06:51:57;;;;;;;10.30;2.60;;;;;;;;;;5009558;28;20206;-67
2023/12/10 06:54:22;;;;;;;20.67;4.93;;;;;;;;;;5008488;28;20693;-67
2023/12/10 06:56:47;;;;;;;17.30;2.90;;;;;;;;;;5010632;28;20220;-68
2023/12/10 06:59:12;;;;;;;19.60;5.17;;;;;;;;;;5011178;28;20209;-68
2023/12/10 07:01:38;;;;;;;24.63;3.60;;;;;;;;;;5004346;28;20199;-68
2023/12/10 07:04:04;;;;;;;13.07;2.77;;;;;;;;;;5010120;28;20183;-68
2023/12/10 07:06:29;;;;;;;20.57;5.47;;;;;;;;;;5008175;28;20175;-68
2023/12/10 07:08:55;;;;;;;13.47;3.07;;;;;;;;;;5008131;28;20201;-67
2023/12/10 07:11:20;;;;;;;19.90;3.43;;;;;;;;;;5005353;28;20199;-67
2023/12/10 07:13:48;;;;;;;12.60;2.40;;;;;;;;;;5011652;28;20203;-69
2023/12/10 07:16:13;;;;;;;17.10;3.77;;;;;;;;;;5012246;28;20237;-66
2023/12/10 07:18:39;;;;;;;13.50;3.03;;;;;;;;;;5012479;28;20659;-67
2023/12/10 07:21:04;;;;;;;13.77;3.93;;;;;;;;;;5010189;28;20733;-67
2023/12/10 07:23:29;;;;;;;10.10;2.87;;;;;;;;;;5012379;28;20176;-68
2023/12/10 07:25:55;;;;;;;17.93;3.40;;;;;;;;;;5012275;28;20205;-68
2023/12/10 07:28:20;;;;;;;10.43;3.17;;;;;;;;;;5012435;28;20174;-68
2023/12/10 07:30:45;;;;;;;17.80;3.23;;;;;;;;;;5012102;28;20191;-67
2023/12/10 07:33:10;;;;;;;11.60;2.70;;;;;;;;;;5012127;28;20270;-67
2023/12/10 07:35:36;;;;;;;21.00;4.07;;;;;;;;;;5009817;28;20589;-67
2023/12/10 07:38:01;;;;;;;7.87;2.87;;;;;;;;;;5012244;28;20327;-68
2023/12/10 07:40:26;;;;;;;20.87;2.87;;;;;;;;;;5011405;28;20573;-67
2023/12/10 07:42:52;;;;;;;9.27;2.77;;;;;;;;;;5010747;28;20183;-68
2023/12/10 07:45:17;;;;;;;18.40;2.67;;;;;;;;;;5009591;28;20203;-67
2023/12/10 07:47:42;;;;;;;15.20;2.57;;;;;;;;;;5008075;28;20179;-67
2023/12/10 07:50:07;;;;;;;17.00;2.93;;;;;;;;;;5007190;28;20345;-68
2023/12/10 07:52:33;;;;;;;11.70;3.30;;;;;;;;;;5011370;28;20183;-68
2023/12/10 07:54:58;;;;;;;15.43;3.17;;;;;;;;;;5010225;28;20198;-68
2023/12/10 07:57:24;;;;;;;20.17;2.77;;;;;;;;;;5010385;28;20183;-68
2023/12/10 07:59:49;;;;;;;18.83;4.37;;;;;;;;;;5008544;28;20179;-67
2023/12/10 08:02:14;;;;;;;16.53;3.47;;;;;;;;;;5000162;28;20237;-69
2023/12/10 08:04:39;;;;;;;18.50;3.43;;;;;;;;;;5019270;28;20658;-68
2023/12/10 08:07:04;;;;;;;14.03;2.90;;;;;;;;;;5008657;28;20318;-68
2023/12/10 08:09:30;;;;;;;22.07;2.70;;;;;;;;;;5005652;28;20265;-67
2023/12/10 08:11:55;;;;;;;13.67;3.20;;;;;;;;;;5011142;28;20203;-67
2023/12/10 08:14:20;;;;;;;9.83;2.53;;;;;;;;;;5011169;28;20199;-67
2023/12/10 08:16:46;;;;;;;17.30;3.40;;;;;;;;;;5010872;28;20189;-67
2023/12/10 08:19:11;;;;;;;10.03;2.90;;;;;;;;;;5011762;28;20187;-68
2023/12/10 08:21:36;;;;;;;14.40;2.90;;;;;;;;;;5010358;28;20201;-68
2023/12/10 08:24:01;;;;;;;11.13;2.43;;;;;;;;;;5006800;28;20273;-68
2023/12/10 08:26:26;;;;;;;18.60;3.73;;;;;;;;;;5011056;28;20220;-68
2023/12/10 08:28:52;;;;;;;15.20;3.37;;;;;;;;;;5008540;28;20228;-67
2023/12/10 08:31:17;;;;;;;19.50;3.50;;;;;;;;;;5011659;28;20685;-67
2023/12/10 08:33:44;;;;;;;15.77;2.33;;;;;;;;;;5008318;28;20552;-68
2023/12/10 08:36:09;;;;;;;17.07;2.70;;;;;;;;;;5007485;28;20203;-67
2023/12/10 08:38:35;;;;;;;16.13;3.73;;;;;;;;;;5006693;28;20214;-68
2023/12/10 08:41:00;;;;;;;21.97;2.90;;;;;;;;;;5009108;28;20191;-68
2023/12/10 08:43:25;;;;;;;18.10;3.10;;;;;;;;;;5003026;28;20180;-67
2023/12/10 08:45:51;;;;;;;16.50;2.67;;;;;;;;;;5010439;28;20309;-67
2023/12/10 08:48:16;;;;;;;11.67;3.17;;;;;;;;;;5011038;28;20209;-67
2023/12/10 08:50:42;;;;;;;17.30;4.07;;;;;;;;;;5009471;28;20210;-67
2023/12/10 08:53:07;;;;;;;20.93;3.47;;;;;;;;;;5010109;28;20175;-67
2023/12/10 08:55:32;;;;;;;21.37;3.40;;;;;;;;;;5009218;28;20202;-67
2023/12/10 08:57:57;;;;;;;13.40;3.20;;;;;;;;;;5007326;28;20237;-67
2023/12/10 09:00:22;;;;;;;18.33;3.20;;;;;;;;;;5003419;28;20266;-67
2023/12/10 09:02:48;;;;;;;11.73;2.70;;;;;;;;;;5006280;28;20179;-67
2023/12/10 09:05:13;;;;;;;12.00;2.80;;;;;;;;;;5010162;28;20635;-68
2023/12/10 09:07:38;;;;;;;10.77;2.43;;;;;;;;;;5009301;28;20616;-67
2023/12/10 09:10:04;;;;;;;12.87;2.53;;;;;;;;;;5007662;28;20194;-67
2023/12/10 09:12:29;;;;;;;16.53;2.97;;;;;;;;;;5007408;28;20270;-67
2023/12/10 09:14:55;;;;;;;16.50;2.93;;;;;;;;;;5004448;28;20242;-68
2023/12/10 09:17:21;;;;;;;14.93;3.00;;;;;;;;;;5007055;28;20182;-67
2023/12/10 09:19:46;;;;;;;22.33;3.83;;;;;;;;;;5006314;28;20191;-67
2023/12/10 09:22:11;;;;;;;15.83;2.97;;;;;;;;;;5006492;28;20218;-67
2023/12/10 09:24:36;;;;;;;14.00;2.53;;;;;;;;;;5001980;28;20191;-68
2023/12/10 09:27:02;;;;;;;12.93;3.50;;;;;;;;;;5003753;28;20690;-67
2023/12/10 09:29:27;;;;;;;20.47;3.00;;;;;;;;;;5008875;28;20610;-67
2023/12/10 09:31:52;;;;;;;20.07;2.40;;;;;;;;;;5009619;28;20207;-67
2023/12/10 09:34:18;;;;;;;14.67;2.80;;;;;;;;;;5007894;28;20198;-68
2023/12/10 09:36:43;;;;;;;22.63;3.23;;;;;;;;;;5022603;28;20183;-68
2023/12/10 09:39:08;;;;;;;13.30;2.50;;;;;;;;;;5008939;28;21717;-67
2023/12/10 09:41:34;;;;;;;11.43;2.07;;;;;;;;;;5000877;28;20557;-67
2023/12/10 09:43:59;;;;;;;19.05;3.20;;;;;;;;;;5007229;28;20257;-67
2023/12/10 09:46:25;;;;;;;9.27;2.70;;;;;;;;;;5021731;28;20692;-68
2023/12/10 09:48:51;;;;;;;10.48;2.25;;;;;;;;;;5007789;28;20359;-66
2023/12/10 09:51:16;;;;;;;11.02;2.70;;;;;;;;;;5011300;28;20623;-68
2023/12/10 09:53:41;;;;;;;10.88;3.17;;;;;;;;;;5009142;28;20206;-67
2023/12/10 09:56:07;;;;;;;13.18;3.40;;;;;;;;;;5008394;28;20670;-67
2023/12/10 09:58:32;;;;;;;12.40;3.20;;;;;;;;;;5008190;28;20179;-67
2023/12/10 10:01:00;;;;;;;9.18;3.45;;;;;;;;;;5006884;28;20195;-68
2023/12/10 10:03:25;;;;;;;13.27;1.80;;;;;;;;;;5006231;28;20183;-68
2023/12/10 10:05:53;;;;;;;15.07;2.80;;;;;;;;;;5007979;28;20190;-67
2023/12/10 10:08:18;;;;;;;16.80;3.90;;;;;;;;;;5007832;28;20202;-66
2023/12/10 10:10:43;;;;;;;14.80;2.55;;;;;;;;;;5008817;28;20195;-68
2023/12/10 10:13:08;;;;;;;14.88;2.88;;;;;;;;;;5026474;28;20175;-68
2023/12/10 10:15:34;;;;;;;6.93;2.20;;;;;;;;;;5013693;28;20289;-68
2023/12/10 10:17:59;;;;;;;23.80;3.70;;;;;;;;;;5011588;28;20595;-68
2023/12/10 10:20:26;;;;;;;18.77;3.60;;;;;;;;;;5013217;28;20210;-66
2023/12/10 10:22:51;;;;;;;15.70;3.40;;;;;;;;;;5006470;28;20239;-66
2023/12/10 10:25:20;;;;;;;16.17;3.13;;;;;;;;;;5010191;28;20178;-67
2023/12/10 10:27:45;;;;;;;12.68;2.30;;;;;;;;;;5012565;28;20194;-67
2023/12/10 10:30:11;;;;;;;16.13;3.00;;;;;;;;;;5009699;28;20179;-68
2023/12/10 10:32:37;;;;;;;9.50;3.03;;;;;;;;;;5012736;28;20191;-67
2023/12/10 10:35:03;;;;;;;20.00;3.08;;;;;;;;;;5008350;28;20362;-68
2023/12/10 10:37:28;;;;;;;12.52;2.88;;;;;;;;;;5013717;28;20258;-68
2023/12/10 10:39:54;;;;;;;7.47;2.20;;;;;;;;;;5012048;28;20565;-69
2023/12/10 10:42:19;;;;;;;13.55;2.83;;;;;;;;;;5012369;28;20333;-67
2023/12/10 10:44:46;;;;;;;11.93;2.78;;;;;;;;;;5007967;28;20737;-67
2023/12/10 10:47:11;;;;;;;19.02;2.60;;;;;;;;;;5011225;28;20183;-71
2023/12/10 10:49:37;;;;;;;14.70;3.13;;;;;;;;;;5010251;28;20210;-68
2023/12/10 10:52:05;;;;;;;11.75;2.97;;;;;;;;;;5024225;28;20682;-67
2023/12/10 10:54:33;;;;;;;21.80;2.92;;;;;;;;;;5011507;28;20206;-67
2023/12/10 10:56:58;;;;;;;9.15;2.47;;;;;;;;;;5015078;28;20194;-69
2023/12/10 10:59:30;;;;;;;13.77;2.55;;;;;;;;;;5009069;28;20183;-68
2023/12/10 11:01:59;;;;;;;12.73;2.83;;;;;;;;;;5010919;28;20210;-67
2023/12/10 11:04:31;;;;;;;14.43;3.72;;;;;;;;;;5010035;28;20193;-67
2023/12/10 11:06:57;;;;;;;16.95;4.70;;;;;;;;;;5010101;28;20221;-67
2023/12/10 11:09:22;;;;;;;14.35;2.38;;;;;;;;;;5010321;28;20265;-67
2023/12/10 11:11:47;;;;;;;8.90;1.85;;;;;;;;;;5009611;28;20214;-67
2023/12/10 11:14:22;;;;;;;11.85;2.90;;;;;;;;;;5011855;28;20207;-67
2023/12/10 11:16:59;;;;;;;16.88;2.85;;;;;;;;;;5013700;28;20232;-67
2023/12/10 11:19:24;;;;;;;15.18;2.65;;;;;;;;;;5008214;28;20213;-67
2023/12/10 11:21:50;;;;;;;15.23;3.03;;;;;;;;;;5012626;28;20281;-67
2023/12/10 11:24:15;;;;;;;22.75;3.78;;;;;;;;;;5006552;28;20190;-67
2023/12/10 11:26:40;;;;;;;12.50;3.13;;;;;;;;;;5011718;28;20198;-67
2023/12/10 11:29:06;;;;;;;13.27;2.20;;;;;;;;;;5010232;28;20662;-67
2023/12/10 11:31:31;;;;;;;14.20;4.25;;;;;;;;;;5010913;28;20781;-68
2023/12/10 11:33:56;;;;;;;27.27;5.90;;;;;;;;;;5009010;28;20744;-68
2023/12/10 11:36:22;;;;;;;8.68;2.00;;;;;;;;;;5011814;28;20171;-68
2023/12/10 11:38:47;;;;;;;8.70;2.15;;;;;;;;;;5009025;28;20198;-68
2023/12/10 11:41:13;;;;;;;21.23;3.42;;;;;;;;;;5006586;28;20196;-67
2023/12/10 11:43:38;;;;;;;12.38;3.78;;;;;;;;;;5013052;28;20240;-68
2023/12/10 11:46:04;;;;;;;13.10;2.60;;;;;;;;;;5007251;28;20613;-69
2023/12/10 11:48:29;;;;;;;16.80;2.70;;;;;;;;;;5012590;28;20167;-68
2023/12/10 11:50:55;;;;;;;11.55;2.65;;;;;;;;;;5010215;28;20591;-68
2023/12/10 11:53:21;;;;;;;13.15;2.30;;;;;;;;;;5009543;28;20202;-66
2023/12/10 11:55:48;;;;;;;22.00;3.72;;;;;;;;;;5011861;28;20206;-67
2023/12/10 11:58:13;;;;;;;10.77;2.25;;;;;;;;;;5012613;28;20241;-68
2023/12/10 12:00:55;;;;;;;17.75;2.72;;;;;;;;;;5010175;28;20195;-68
2023/12/10 12:03:20;;;;;;;14.52;2.08;;;;;;;;;;5011097;28;20198;-68
2023/12/10 12:05:50;;;;;;;7.25;2.75;;;;;;;;;;5010018;28;20564;-68
2023/12/10 12:08:15;;;;;;;9.35;2.13;;;;;;;;;;5010869;28;20195;-68
2023/12/10 12:10:40;;;;;;;12.32;3.30;;;;;;;;;;5007552;28;20256;-66
2023/12/10 12:13:06;;;;;;;12.27;2.25;;;;;;;;;;5009590;28;20179;-67
2023/12/10 12:15:31;;;;;;;9.07;2.55;;;;;;;;;;5007750;28;20213;-67
2023/12/10 12:17:56;;;;;;;14.43;3.25;;;;;;;;;;5023840;28;20642;-67
2023/12/10 12:20:22;;;;;;;10.52;2.03;;;;;;;;;;5011198;28;20191;-67
2023/12/10 12:22:47;;;;;;;12.75;2.05;;;;;;;;;;5008237;28;20190;-67
2023/12/10 12:25:13;;;;;;;12.35;2.95;;;;;;;;;;5003297;28;20174;-67
2023/12/10 12:27:38;;;;;;;13.90;2.65;;;;;;;;;;5008852;28;20204;-67
2023/12/10 12:30:04;;;;;;;10.35;1.95;;;;;;;;;;5009001;28;20206;-66
2023/12/10 12:32:30;;;;;;;14.13;2.95;;;;;;;;;;5010020;28;20183;-66
2023/12/10 12:34:55;;;;;;;11.95;2.22;;;;;;;;;;5008036;28;20264;-66
2023/12/10 12:37:20;;;;;;;17.85;3.05;;;;;;;;;;5009128;28;20185;-67
2023/12/10 12:39:45;;;;;;;17.52;3.42;;;;;;;;;;5024596;22;20258;-64
2023/12/10 12:42:11;;;;;;;19.45;2.63;;;;;;;;;;4989261;28;20686;-65
2023/12/10 12:44:36;;;;;;;9.70;2.85;;;;;;;;;;4988057;28;20199;-65
2023/12/10 12:47:01;;;;;;;12.68;2.15;;;;;;;;;;4988476;28;20195;-66
2023/12/10 12:49:26;;;;;;;15.07;3.72;;;;;;;;;;4991143;28;20857;-66
2023/12/10 12:51:51;;;;;;;19.05;3.70;;;;;;;;;;4989384;28;20179;-67
2023/12/10 12:54:17;;;;;;;13.57;2.60;;;;;;;;;;4992732;28;20375;-67
2023/12/10 12:56:44;;;;;;;13.50;2.90;;;;;;;;;;4990110;28;20214;-66
2023/12/10 12:59:10;;;;;;;10.50;2.47;;;;;;;;;;4987756;28;20195;-67
2023/12/10 13:01:36;;;;;;;19.90;4.03;;;;;;;;;;4980747;28;20801;-66
2023/12/10 13:04:01;;;;;;;18.05;2.95;;;;;;;;;;4986055;28;20188;-66
2023/12/10 13:06:26;;;;;;;12.25;3.17;;;;;;;;;;5007015;28;20186;-66
2023/12/10 13:08:52;;;;;;;9.90;2.95;;;;;;;;;;4992802;28;20176;-66
2023/12/10 13:11:17;;;;;;;18.48;3.30;;;;;;;;;;4991234;28;20639;-66
2023/12/10 13:13:43;;;;;;;12.13;3.67;;;;;;;;;;4988428;28;20192;-66
2023/12/10 13:16:08;;;;;;;19.48;4.15;;;;;;;;;;4990331;28;20524;-66
2023/12/10 13:18:33;;;;;;;13.90;3.08;;;;;;;;;;4986373;28;20589;-66
2023/12/10 13:20:59;;;;;;;17.92;4.53;;;;;;;;;;4993264;28;20600;-66
2023/12/10 13:23:24;;;;;;;20.52;4.50;;;;;;;;;;4989903;28;20570;-66
2023/12/10 13:25:50;;;;;;;21.80;3.53;;;;;;;;;;4989890;28;20183;-66
2023/12/10 13:28:15;;;;;;;16.80;3.25;;;;;;;;;;4996817;28;20241;-66
2023/12/10 13:30:40;;;;;;;14.77;4.03;;;;;;;;;;4987330;28;20246;-66
2023/12/10 13:33:06;;;;;;;18.85;4.18;;;;;;;;;;4991207;28;20231;-66
2023/12/10 13:35:31;;;;;;;21.88;5.20;;;;;;;;;;4991031;28;20206;-67
2023/12/10 13:37:56;;;;;;;21.30;4.47;;;;;;;;;;4992634;28;20226;-66
2023/12/10 13:40:21;;;;;;;23.10;3.92;;;;;;;;;;4991998;28;20698;-66
2023/12/10 13:42:47;;;;;;;24.10;4.88;;;;;;;;;;4995776;28;20240;-66
2023/12/10 13:45:12;;;;;;;17.85;5.07;;;;;;;;;;4989082;28;20180;-66
2023/12/10 13:47:37;;;;;;;22.25;5.22;;;;;;;;;;4995836;28;20618;-66
2023/12/10 13:50:03;;;;;;;22.10;4.28;;;;;;;;;;4996213;28;20286;-66
2023/12/10 13:52:28;;;;;;;26.95;6.00;;;;;;;;;;4999278;28;20444;-66
2023/12/10 13:54:53;;;;;;;22.48;4.55;;;;;;;;;;4995256;28;20238;-66
2023/12/10 13:57:19;;;;;;;22.90;5.38;;;;;;;;;;5001067;28;20218;-66
2023/12/10 13:59:44;;;;;;;24.13;4.57;;;;;;;;;;4993226;28;21360;-66
2023/12/10 14:02:09;;;;;;;25.52;4.95;;;;;;;;;;4995083;28;20673;-66
2023/12/10 14:04:34;;;;;;;19.67;3.90;;;;;;;;;;4995644;28;20674;-66
2023/12/10 14:07:01;;;;;;;29.55;6.03;;;;;;;;;;4992385;28;20183;-66
2023/12/10 14:09:26;;;;;;;25.48;4.97;;;;;;;;;;4995940;28;20602;-66
2023/12/10 14:11:51;;;;;;;22.30;4.55;;;;;;;;;;4991992;28;20207;-67
2023/12/10 14:14:16;;;;;;;19.58;5.28;;;;;;;;;;4992651;28;20207;-66
2023/12/10 14:16:42;;;;;;;26.55;4.63;;;;;;;;;;4996234;28;20259;-66
2023/12/10 14:19:07;;;;;;;29.50;6.28;;;;;;;;;;4994697;28;20171;-66
2023/12/10 14:21:33;;;;;;;28.45;4.38;;;;;;;;;;4994069;28;20639;-66
2023/12/10 14:23:58;;;;;;;22.60;5.13;;;;;;;;;;4992785;28;20172;-66
2023/12/10 14:26:23;;;;;;;19.90;4.70;;;;;;;;;;4989249;28;20231;-66
2023/12/10 14:28:48;;;;;;;27.50;5.53;;;;;;;;;;4990326;28;20799;-66
2023/12/10 14:31:14;;;;;;;29.25;5.20;;;;;;;;;;4992625;28;20668;-66
2023/12/10 14:33:39;;;;;;;19.20;5.10;;;;;;;;;;4993916;28;20279;-66
2023/12/10 14:36:04;;;;;;;31.83;5.35;;;;;;;;;;4991148;28;20328;-66
2023/12/10 14:38:30;;;;;;;35.15;6.72;;;;;;;;;;4991051;28;20647;-66
2023/12/10 14:40:55;;;;;;;20.23;5.22;;;;;;;;;;4994933;28;20246;-66
2023/12/10 14:43:20;;;;;;;27.15;5.22;;;;;;;;;;4992638;28;20544;-66
2023/12/10 14:45:46;;;;;;;30.13;5.97;;;;;;;;;;5008400;28;20278;-66
2023/12/10 14:48:11;;;;;;;23.98;5.43;;;;;;;;;;4994390;28;20582;-66
2023/12/10 14:50:37;;;;;;;20.00;5.28;;;;;;;;;;4989406;28;20220;-66
2023/12/10 14:53:02;;;;;;;27.02;6.85;;;;;;;;;;4990899;28;20176;-66
2023/12/10 14:55:27;;;;;;;26.67;5.93;;;;;;;;;;4991102;28;20199;-67
2023/12/10 14:57:53;;;;;;;22.77;6.47;;;;;;;;;;4991548;28;20186;-66
2023/12/10 15:00:18;;;;;;;18.63;4.63;;;;;;;;;;4989148;28;20749;-66
2023/12/10 15:02:43;;;;;;;24.92;5.18;;;;;;;;;;4990072;28;20508;-66
2023/12/10 15:05:09;;;;;;;25.30;5.77;;;;;;;;;;4990731;28;20667;-66
2023/12/10 15:07:41;;;;;;;16.97;4.83;;;;;;;;;;4984091;28;20306;-66
2023/12/10 15:10:06;;;;;;;22.92;5.45;;;;;;;;;;4991210;28;20207;-66
2023/12/10 15:12:32;;;;;;;20.27;4.97;;;;;;;;;;4990371;28;20186;-67
2023/12/10 15:14:57;;;;;;;20.13;4.82;;;;;;;;;;4990721;28;20336;-66
2023/12/10 15:17:22;;;;;;;14.38;4.05;;;;;;;;;;4987632;28;20207;-67
2023/12/10 15:19:47;;;;;;;16.30;4.97;;;;;;;;;;4992755;28;20195;-66
2023/12/10 15:22:15;;;;;;;20.77;4.68;;;;;;;;;;4988534;28;20631;-66
2023/12/10 15:24:40;;;;;;;19.42;4.30;;;;;;;;;;4989765;28;20275;-66
2023/12/10 15:27:05;;;;;;;16.43;4.00;;;;;;;;;;4991525;28;20723;-66
2023/12/10 15:29:30;;;;;;;16.10;3.93;;;;;;;;;;4989932;28;20215;-66
2023/12/10 15:31:56;;;;;;;24.10;4.47;;;;;;;;;;4983626;28;20195;-66
2023/12/10 15:34:25;;;;;;;22.83;5.27;;;;;;;;;;4989387;28;20634;-66
2023/12/10 15:36:50;;;;;;;17.63;5.07;;;;;;;;;;4991972;28;20174;-66
2023/12/10 15:39:15;;;;;;;14.47;4.67;;;;;;;;;;4992072;28;20175;-66
2023/12/10 15:41:41;;;;;;;17.77;4.93;;;;;;;;;;4997747;28;20211;-66
2023/12/10 15:44:06;;;;;;;19.88;6.10;;;;;;;;;;4995203;28;20644;-66
2023/12/10 15:46:31;;;;;;;28.07;5.23;;;;;;;;;;4991696;28;20195;-66
2023/12/10 15:48:56;;;;;;;16.50;4.10;;;;;;;;;;4994039;28;20183;-66